createdAt,value
2018-06-30T00:00:09.389Z,101272.41
2018-06-30T00:02:38.083Z,101277.56
2018-06-30T00:05:06.748Z,101277.74
2018-06-30T00:07:35.192Z,101276.52
2018-06-30T00:10:03.484Z,101276.36
2018-06-30T00:12:31.583Z,101282.00
2018-06-30T00:15:00.061Z,101274.80
2018-06-30T00:17:28.517Z,101278.23
2018-06-30T00:19:56.933Z,101282.31
2018-06-30T00:22:25.373Z,101285.05
2018-06-30T00:24:53.866Z,101282.14
2018-06-30T00:27:28.375Z,101283.51
2018-06-30T00:29:57.652Z,101281.63
2018-06-30T00:32:26.345Z,101280.95
2018-06-30T00:34:55.001Z,101282.30
2018-06-30T00:37:23.517Z,101287.92
2018-06-30T00:39:52.193Z,101279.19
2018-06-30T00:42:20.481Z,101275.26
2018-06-30T00:44:48.925Z,101275.75
2018-06-30T00:47:17.063Z,101280.84
2018-06-30T00:49:45.177Z,101274.39
2018-06-30T00:52:14.059Z,101277.06
2018-06-30T00:54:42.693Z,101279.14
2018-06-30T00:57:11.137Z,101271.92
2018-06-30T00:59:39.245Z,101282.69
2018-06-30T01:02:07.530Z,101279.92
2018-06-30T01:04:35.973Z,101281.12
2018-06-30T01:07:04.302Z,101283.33
2018-06-30T01:09:32.418Z,101280.91
2018-06-30T01:12:00.905Z,101283.44
2018-06-30T01:14:29.338Z,101281.41
2018-06-30T01:16:58.061Z,101276.08
2018-06-30T01:19:26.605Z,101279.69
2018-06-30T01:21:55.338Z,101281.44
2018-06-30T01:24:23.456Z,101282.45
2018-06-30T01:26:52.301Z,101282.77
2018-06-30T01:29:20.430Z,101273.69
2018-06-30T01:31:48.881Z,101279.34
2018-06-30T01:34:17.582Z,101272.99
2018-06-30T01:36:46.217Z,101278.07
2018-06-30T01:39:14.674Z,101283.81
2018-06-30T01:41:43.120Z,101278.87
2018-06-30T01:44:11.570Z,101283.77
2018-06-30T01:46:40.026Z,101285.83
2018-06-30T01:49:08.499Z,101286.49
2018-06-30T01:51:36.853Z,101284.11
2018-06-30T01:54:05.538Z,101280.50
2018-06-30T01:56:34.224Z,101280.42
2018-06-30T01:59:02.888Z,101275.44
2018-06-30T02:01:30.997Z,101277.41
2018-06-30T02:03:59.121Z,101280.91
2018-06-30T02:06:27.818Z,101281.91
2018-06-30T02:08:55.948Z,101285.11
2018-06-30T02:11:24.390Z,101284.34
2018-06-30T02:13:52.836Z,101285.41
2018-06-30T02:16:21.301Z,101289.05
2018-06-30T02:18:49.789Z,101290.11
2018-06-30T02:21:18.393Z,101286.61
2018-06-30T02:23:46.526Z,101295.32
2018-06-30T02:26:14.614Z,101290.52
2018-06-30T02:28:43.069Z,101292.05
2018-06-30T02:31:11.385Z,101303.51
2018-06-30T02:33:40.019Z,101299.12
2018-06-30T02:36:08.462Z,101304.08
2018-06-30T02:38:37.137Z,101303.18
2018-06-30T02:41:05.249Z,101302.69
2018-06-30T02:43:33.706Z,101307.03
2018-06-30T02:46:02.140Z,101304.22
2018-06-30T02:48:30.716Z,101309.59
2018-06-30T02:50:59.083Z,101302.81
2018-06-30T02:53:27.824Z,101314.45
2018-06-30T02:55:56.178Z,101314.61
2018-06-30T02:58:24.829Z,101317.49
2018-06-30T03:00:53.162Z,101314.03
2018-06-30T03:03:21.284Z,101315.70
2018-06-30T03:05:49.694Z,101315.30
2018-06-30T03:08:17.819Z,101319.63
2018-06-30T03:10:46.354Z,101322.80
2018-06-30T03:13:14.928Z,101324.16
2018-06-30T03:15:43.579Z,101323.20
2018-06-30T03:18:12.049Z,101326.56
2018-06-30T03:20:40.369Z,101328.08
2018-06-30T03:23:09.017Z,101323.56
2018-06-30T03:25:37.141Z,101324.72
2018-06-30T03:28:05.281Z,101333.41
2018-06-30T03:30:33.753Z,101333.97
2018-06-30T03:33:02.386Z,101340.98
2018-06-30T03:35:30.849Z,101338.05
2018-06-30T03:37:59.270Z,101340.98
2018-06-30T03:40:27.630Z,101337.54
2018-06-30T03:42:55.968Z,101341.27
2018-06-30T03:45:24.134Z,101341.22
2018-06-30T03:47:52.580Z,101333.41
2018-06-30T03:50:21.030Z,101341.90
2018-06-30T03:52:49.469Z,101336.73
2018-06-30T03:55:17.888Z,101341.09
2018-06-30T03:57:46.325Z,101341.77
2018-06-30T04:00:14.765Z,101341.66
2018-06-30T04:02:43.211Z,101346.67
2018-06-30T04:05:11.326Z,101348.11
2018-06-30T04:07:40.006Z,101345.23
2018-06-30T04:10:08.458Z,101343.59
2018-06-30T04:12:36.890Z,101347.27
2018-06-30T04:15:05.627Z,101352.87
2018-06-30T04:17:33.726Z,101348.86
2018-06-30T04:20:02.187Z,101361.48
2018-06-30T04:22:30.625Z,101362.11
2018-06-30T04:24:59.080Z,101358.39
2018-06-30T04:27:27.536Z,101357.83
2018-06-30T04:29:55.652Z,101360.34
2018-06-30T04:32:23.754Z,101366.29
2018-06-30T04:34:52.211Z,101364.34
2018-06-30T04:37:20.314Z,101365.50
2018-06-30T04:39:48.781Z,101366.43
2018-06-30T04:42:17.216Z,101373.89
2018-06-30T04:44:45.334Z,101373.45
2018-06-30T04:47:13.445Z,101375.68
2018-06-30T04:49:41.894Z,101383.10
2018-06-30T04:52:10.374Z,101379.95
2018-06-30T04:54:38.844Z,101385.75
2018-06-30T04:57:07.190Z,101389.32
2018-06-30T04:59:35.452Z,101385.39
2018-06-30T05:02:03.574Z,101387.27
2018-06-30T05:04:31.857Z,101385.77
2018-06-30T05:07:00.569Z,101376.91
2018-06-30T05:09:28.712Z,101383.41
2018-06-30T05:11:58.984Z,101386.98
2018-06-30T05:14:27.677Z,101386.07
2018-06-30T05:16:56.017Z,101392.87
2018-06-30T05:19:24.477Z,101392.36
2018-06-30T05:21:52.942Z,101396.09
2018-06-30T05:24:21.049Z,101392.70
2018-06-30T05:26:49.173Z,101401.95
2018-06-30T05:29:17.617Z,101397.36
2018-06-30T05:31:45.750Z,101402.55
2018-06-30T05:34:13.859Z,101401.66
2018-06-30T05:36:41.968Z,101397.15
2018-06-30T05:39:19.642Z,101400.14
2018-06-30T05:41:48.101Z,101393.46
2018-06-30T05:44:16.977Z,101396.80
2018-06-30T05:46:45.449Z,101401.00
2018-06-30T05:49:14.086Z,101404.80
2018-06-30T05:51:42.209Z,101406.24
2018-06-30T05:54:10.657Z,101406.28
2018-06-30T05:56:38.797Z,101407.36
2018-06-30T05:59:07.241Z,101400.45
2018-06-30T06:01:35.732Z,101407.38
2018-06-30T06:04:04.177Z,101409.55
2018-06-30T06:06:32.640Z,101412.66
2018-06-30T06:09:00.749Z,101412.09
2018-06-30T06:11:29.205Z,101412.66
2018-06-30T06:13:57.650Z,101419.19
2018-06-30T06:16:26.105Z,101412.13
2018-06-30T06:18:54.538Z,101417.03
2018-06-30T06:21:22.660Z,101412.05
2018-06-30T06:23:50.773Z,101415.11
2018-06-30T06:26:19.418Z,101413.03
2018-06-30T06:28:47.846Z,101420.50
2018-06-30T06:31:16.318Z,101411.44
2018-06-30T06:33:44.777Z,101420.98
2018-06-30T06:36:13.466Z,101421.14
2018-06-30T06:38:41.900Z,101412.47
2018-06-30T06:41:10.356Z,101408.89
2018-06-30T06:43:38.797Z,101409.18
2018-06-30T06:46:07.498Z,101404.73
2018-06-30T06:48:35.931Z,101406.43
2018-06-30T06:51:04.076Z,101406.09
2018-06-30T06:53:32.373Z,101413.94
2018-06-30T06:56:00.841Z,101408.34
2018-06-30T06:58:29.521Z,101414.34
2018-06-30T07:00:57.934Z,101413.56
2018-06-30T07:03:26.669Z,101421.70
2018-06-30T07:05:55.210Z,101417.88
2018-06-30T07:08:23.322Z,101420.00
2018-06-30T07:10:51.452Z,101424.22
2018-06-30T07:13:20.125Z,101423.55
2018-06-30T07:15:48.256Z,101427.66
2018-06-30T07:18:16.933Z,101423.70
2018-06-30T07:20:45.529Z,101424.67
2018-06-30T07:23:14.093Z,101434.33
2018-06-30T07:25:42.226Z,101426.19
2018-06-30T07:28:10.366Z,101416.52
2018-06-30T07:30:38.775Z,101418.28
2018-06-30T07:33:07.829Z,101413.34
2018-06-30T07:35:36.173Z,101423.62
2018-06-30T07:38:04.433Z,101413.89
2018-06-30T07:40:32.957Z,101424.17
2018-06-30T07:43:01.649Z,101421.44
2018-06-30T07:45:29.765Z,101426.08
2018-06-30T07:47:58.238Z,101421.45
2018-06-30T07:50:26.408Z,101416.49
2018-06-30T07:52:54.920Z,101418.73
2018-06-30T07:55:23.299Z,101412.91
2018-06-30T07:57:51.433Z,101417.02
2018-06-30T08:00:19.972Z,101421.27
2018-06-30T08:02:48.412Z,101424.20
2018-06-30T08:05:16.840Z,101419.56
2018-06-30T08:07:45.296Z,101423.87
2018-06-30T08:10:13.391Z,101423.48
2018-06-30T08:12:41.870Z,101428.81
2018-06-30T08:15:10.297Z,101428.12
2018-06-30T08:17:38.920Z,101428.50
2018-06-30T08:20:07.361Z,101428.98
2018-06-30T08:22:35.661Z,101432.21
2018-06-30T08:25:03.794Z,101442.83
2018-06-30T08:27:32.259Z,101436.63
2018-06-30T08:30:00.364Z,101436.09
2018-06-30T08:32:28.473Z,101428.55
2018-06-30T08:34:56.981Z,101423.87
2018-06-30T08:37:25.433Z,101431.53
2018-06-30T08:39:54.115Z,101435.73
2018-06-30T08:42:22.234Z,101437.63
2018-06-30T08:44:50.685Z,101425.95
2018-06-30T08:47:18.804Z,101427.53
2018-06-30T08:49:47.371Z,101435.36
2018-06-30T08:52:15.833Z,101429.84
2018-06-30T08:54:43.934Z,101429.45
2018-06-30T08:57:12.712Z,101426.36
2018-06-30T08:59:41.473Z,101432.70
2018-06-30T09:02:09.736Z,101439.29
2018-06-30T09:04:38.172Z,101439.78
2018-06-30T09:07:06.288Z,101444.02
2018-06-30T09:09:34.950Z,101443.83
2018-06-30T09:12:03.892Z,101441.48
2018-06-30T09:14:32.360Z,101433.91
2018-06-30T09:17:00.817Z,101428.56
2018-06-30T09:19:28.932Z,101437.77
2018-06-30T09:21:57.061Z,101439.93
2018-06-30T09:24:25.157Z,101440.82
2018-06-30T09:26:53.517Z,101441.14
2018-06-30T09:29:21.624Z,101438.81
2018-06-30T09:31:50.313Z,101444.45
2018-06-30T09:34:18.433Z,101439.98
2018-06-30T09:36:46.773Z,101431.66
2018-06-30T09:39:15.102Z,101433.91
2018-06-30T09:41:43.200Z,101440.07
2018-06-30T09:44:11.349Z,101447.77
2018-06-30T09:46:39.760Z,101440.95
2018-06-30T09:49:08.232Z,101436.48
2018-06-30T09:51:36.686Z,101432.89
2018-06-30T09:54:04.829Z,101443.80
2018-06-30T09:56:33.248Z,101432.20
2018-06-30T09:59:01.703Z,101430.84
2018-06-30T10:01:30.052Z,101442.33
2018-06-30T10:04:01.951Z,101435.06
2018-06-30T10:06:30.557Z,101440.07
2018-06-30T10:08:58.904Z,101439.00
2018-06-30T10:11:27.349Z,101446.40
2018-06-30T10:13:55.809Z,101438.66
2018-06-30T10:16:24.269Z,101434.19
2018-06-30T10:18:52.400Z,101429.92
2018-06-30T10:21:20.504Z,101436.03
2018-06-30T10:23:48.959Z,101429.23
2018-06-30T10:26:17.393Z,101435.92
2018-06-30T10:28:45.509Z,101437.13
2018-06-30T10:31:13.998Z,101434.49
2018-06-30T10:33:42.293Z,101427.86
2018-06-30T10:36:10.786Z,101432.31
2018-06-30T10:38:39.247Z,101429.69
2018-06-30T10:41:07.391Z,101426.59
2018-06-30T10:43:36.086Z,101428.98
2018-06-30T10:46:04.207Z,101422.88
2018-06-30T10:48:32.888Z,101418.38
2018-06-30T10:51:01.041Z,101417.19
2018-06-30T10:53:29.932Z,101412.89
2018-06-30T10:55:58.414Z,101407.99
2018-06-30T10:58:27.311Z,101402.62
2018-06-30T11:00:55.750Z,101410.67
2018-06-30T11:03:24.253Z,101410.02
2018-06-30T11:05:52.778Z,101409.77
2018-06-30T11:08:21.640Z,101405.09
2018-06-30T11:10:50.547Z,101403.22
2018-06-30T11:13:19.201Z,101398.10
2018-06-30T11:15:47.629Z,101401.09
2018-06-30T11:18:16.058Z,101397.94
2018-06-30T11:20:44.725Z,101394.62
2018-06-30T11:23:13.288Z,101389.04
2018-06-30T11:25:41.387Z,101386.28
2018-06-30T11:28:09.789Z,101389.55
2018-06-30T11:30:38.689Z,101386.77
2018-06-30T11:33:07.153Z,101392.41
2018-06-30T11:35:35.283Z,101385.72
2018-06-30T11:38:03.749Z,101377.41
2018-06-30T11:40:32.486Z,101380.95
2018-06-30T11:43:01.010Z,101384.73
2018-06-30T11:45:29.371Z,101368.92
2018-06-30T11:47:57.477Z,101363.57
2018-06-30T11:50:25.664Z,101343.79
2018-06-30T11:52:54.712Z,101365.07
2018-06-30T11:55:23.133Z,101356.51
2018-06-30T11:57:51.237Z,101363.64
2018-06-30T12:00:19.705Z,101355.94
2018-06-30T12:02:48.873Z,101360.70
2018-06-30T12:05:17.392Z,101350.84
2018-06-30T12:07:46.168Z,101349.16
2018-06-30T12:10:14.820Z,101347.78
2018-06-30T12:12:43.745Z,101359.05
2018-06-30T12:15:12.193Z,101350.09
2018-06-30T12:17:40.307Z,101344.18
2018-06-30T12:20:09.421Z,101335.55
2018-06-30T12:22:37.765Z,101340.73
2018-06-30T12:25:06.182Z,101342.97
2018-06-30T12:27:34.885Z,101343.69
2018-06-30T12:30:03.597Z,101341.57
2018-06-30T12:32:32.033Z,101345.96
2018-06-30T12:35:00.613Z,101329.87
2018-06-30T12:37:29.050Z,101343.86
2018-06-30T12:39:57.529Z,101329.92
2018-06-30T12:42:25.885Z,101334.27
2018-06-30T12:44:54.618Z,101329.25
2018-06-30T12:47:23.244Z,101332.61
2018-06-30T12:49:52.269Z,101334.05
2018-06-30T12:52:20.429Z,101332.31
2018-06-30T12:54:49.155Z,101330.55
2018-06-30T12:57:17.784Z,101331.06
2018-06-30T12:59:46.227Z,101325.19
2018-06-30T13:02:14.895Z,101319.47
2018-06-30T13:04:43.241Z,101327.11
2018-06-30T13:07:12.264Z,101324.04
2018-06-30T13:09:40.714Z,101318.38
2018-06-30T13:12:09.566Z,101312.53
2018-06-30T13:14:38.255Z,101315.50
2018-06-30T13:17:06.374Z,101306.26
2018-06-30T13:19:34.641Z,101311.46
2018-06-30T13:22:02.760Z,101307.11
2018-06-30T13:24:31.481Z,101297.94
2018-06-30T13:27:00.174Z,101305.28
2018-06-30T13:29:28.308Z,101310.06
2018-06-30T13:31:56.759Z,101298.36
2018-06-30T13:34:25.293Z,101306.56
2018-06-30T13:36:53.879Z,101310.09
2018-06-30T13:39:23.245Z,101307.72
2018-06-30T13:41:51.353Z,101313.91
2018-06-30T13:44:19.826Z,101317.64
2018-06-30T13:46:48.260Z,101304.72
2018-06-30T13:49:16.668Z,101309.54
2018-06-30T13:51:44.781Z,101303.78
2018-06-30T13:57:03.767Z,101300.73
2018-06-30T13:59:32.448Z,101298.94
2018-06-30T14:02:00.536Z,101299.34
2018-06-30T14:04:29.083Z,101300.91
2018-06-30T14:06:57.470Z,101288.39
2018-06-30T14:09:26.023Z,101290.33
2018-06-30T14:11:54.355Z,101283.10
2018-06-30T14:14:22.919Z,101290.59
2018-06-30T14:16:51.556Z,101282.95
2018-06-30T14:19:20.261Z,101275.41
2018-06-30T14:21:48.880Z,101282.53
2018-06-30T14:24:17.303Z,101277.11
2018-06-30T14:26:45.668Z,101276.41
2018-06-30T14:29:13.928Z,101269.52
2018-06-30T14:31:43.792Z,101271.33
2018-06-30T14:34:12.223Z,101269.08
2018-06-30T14:36:40.570Z,101265.89
2018-06-30T14:39:11.393Z,101265.02
2018-06-30T14:41:39.805Z,101265.05
2018-06-30T14:44:07.982Z,101274.10
2018-06-30T14:46:36.723Z,101273.87
2018-06-30T14:49:05.696Z,101270.98
2018-06-30T14:51:34.517Z,101262.98
2018-06-30T14:54:03.408Z,101271.19
2018-06-30T14:56:32.023Z,101272.86
2018-06-30T14:59:00.352Z,101272.67
2018-06-30T15:01:28.732Z,101279.19
2018-06-30T15:03:56.823Z,101274.81
2018-06-30T15:06:25.261Z,101272.17
2018-06-30T15:08:54.188Z,101267.59
2018-06-30T15:11:22.302Z,101272.91
2018-06-30T15:13:51.133Z,101284.50
2018-06-30T15:16:19.449Z,101271.63
2018-06-30T15:18:48.647Z,101269.30
2018-06-30T15:21:17.148Z,101269.17
2018-06-30T15:23:45.264Z,101276.42
2018-06-30T15:26:13.952Z,101270.48
2018-06-30T15:28:42.233Z,101261.55
2018-06-30T15:31:10.340Z,101257.17
2018-06-30T15:33:38.449Z,101263.67
2018-06-30T15:36:06.680Z,101262.18
2018-06-30T15:38:35.168Z,101261.72
2018-06-30T15:41:03.633Z,101262.70
2018-06-30T15:43:32.304Z,101259.72
2018-06-30T15:46:01.252Z,101256.63
2018-06-30T15:48:29.692Z,101254.94
2018-06-30T15:50:58.399Z,101248.76
2018-06-30T15:53:26.892Z,101251.20
2018-06-30T15:55:55.275Z,101258.22
2018-06-30T15:58:23.544Z,101253.01
2018-06-30T16:00:52.552Z,101247.50
2018-06-30T16:03:20.996Z,101250.69
2018-06-30T16:05:49.383Z,101250.24
2018-06-30T16:08:17.887Z,101251.91
2018-06-30T16:10:46.607Z,101245.09
2018-06-30T16:13:15.036Z,101244.34
2018-06-30T16:15:44.869Z,101247.55
2018-06-30T16:18:13.207Z,101257.75
2018-06-30T16:20:41.736Z,101242.42
2018-06-30T16:23:10.675Z,101242.50
2018-06-30T16:25:39.123Z,101244.11
2018-06-30T16:28:07.708Z,101245.09
2018-06-30T16:30:36.168Z,101243.03
2018-06-30T16:33:04.660Z,101250.91
2018-06-30T16:35:32.931Z,101244.81
2018-06-30T16:38:01.894Z,101244.16
2018-06-30T16:40:30.617Z,101246.30
2018-06-30T16:42:58.736Z,101238.84
2018-06-30T16:45:27.156Z,101243.28
2018-06-30T16:47:55.948Z,101229.87
2018-06-30T16:50:24.284Z,101235.18
2018-06-30T16:52:53.195Z,101238.16
2018-06-30T16:55:21.385Z,101236.05
2018-06-30T16:57:49.755Z,101239.94
2018-06-30T17:00:18.431Z,101238.95
2018-06-30T17:02:46.646Z,101238.73
2018-06-30T17:05:14.981Z,101233.92
2018-06-30T17:07:44.976Z,101231.75
2018-06-30T17:10:13.721Z,101236.94
2018-06-30T17:12:42.872Z,101235.89
2018-06-30T17:15:11.747Z,101235.34
2018-06-30T17:17:40.019Z,101230.52
2018-06-30T17:20:08.533Z,101230.03
2018-06-30T17:22:37.121Z,101218.88
2018-06-30T17:25:05.424Z,101227.23
2018-06-30T17:27:33.778Z,101223.25
2018-06-30T17:30:02.922Z,101226.28
2018-06-30T17:32:32.091Z,101229.11
2018-06-30T17:35:00.695Z,101225.91
2018-06-30T17:37:28.848Z,101227.27
2018-06-30T17:39:56.939Z,101229.76
2018-06-30T17:42:25.758Z,101233.66
2018-06-30T17:44:54.080Z,101239.00
2018-06-30T17:47:22.482Z,101234.11
2018-06-30T17:49:50.857Z,101235.52
2018-06-30T17:52:19.619Z,101232.56
2018-06-30T17:54:48.208Z,101240.51
2018-06-30T17:57:16.500Z,101238.17
2018-06-30T17:59:44.940Z,101245.27
2018-06-30T18:02:13.092Z,101247.03
2018-06-30T18:04:46.940Z,101244.41
2018-06-30T18:07:15.132Z,101241.25
2018-06-30T18:09:47.456Z,101240.80
2018-06-30T18:12:16.211Z,101240.34
2018-06-30T18:14:45.348Z,101238.38
2018-06-30T18:17:13.481Z,101236.17
2018-06-30T18:19:42.058Z,101240.44
2018-06-30T18:22:10.403Z,101240.69
2018-06-30T18:24:38.967Z,101236.80
2018-06-30T18:27:07.480Z,101249.14
2018-06-30T18:29:36.019Z,101246.09
2018-06-30T18:32:04.375Z,101255.61
2018-06-30T18:34:33.074Z,101255.65
2018-06-30T18:37:01.944Z,101256.42
2018-06-30T18:39:30.509Z,101260.00
2018-06-30T18:41:59.016Z,101261.65
2018-06-30T18:44:27.121Z,101258.09
2018-06-30T18:46:55.601Z,101268.02
2018-06-30T18:49:23.940Z,101264.27
2018-06-30T18:51:52.672Z,101267.89
2018-06-30T18:54:21.106Z,101265.50
2018-06-30T18:56:49.510Z,101269.25
2018-06-30T18:59:18.245Z,101274.52
2018-06-30T19:01:47.015Z,101273.23
2018-06-30T19:04:15.976Z,101273.31
2018-06-30T19:06:45.546Z,101273.53
2018-06-30T19:09:14.423Z,101271.53
2018-06-30T19:11:42.764Z,101276.22
2018-06-30T19:14:11.084Z,101277.78
2018-06-30T19:16:39.396Z,101276.81
2018-06-30T19:19:07.771Z,101275.66
2018-06-30T19:21:36.387Z,101279.98
2018-06-30T19:24:04.944Z,101289.06
2018-06-30T19:26:33.585Z,101289.67
2018-06-30T19:29:02.548Z,101286.84
2018-06-30T19:31:31.175Z,101289.81
2018-06-30T19:33:59.862Z,101294.18
2018-06-30T19:36:28.299Z,101300.22
2018-06-30T19:38:57.218Z,101294.77
2018-06-30T19:41:25.656Z,101300.47
2018-06-30T19:43:54.898Z,101297.35
2018-06-30T19:46:23.313Z,101289.89
2018-06-30T19:48:52.040Z,101291.80
2018-06-30T19:51:20.172Z,101298.52
2018-06-30T19:53:48.609Z,101308.36
2018-06-30T19:56:17.720Z,101307.36
2018-06-30T19:58:46.222Z,101304.62
2018-06-30T20:01:14.331Z,101312.20
2018-06-30T20:03:42.770Z,101315.66
2018-06-30T20:06:11.336Z,101314.81
2018-06-30T20:08:40.014Z,101319.45
2018-06-30T20:11:08.116Z,101320.14
2018-06-30T20:13:36.836Z,101315.53
2018-06-30T20:16:04.915Z,101321.17
2018-06-30T20:18:33.027Z,101330.94
2018-06-30T20:21:01.808Z,101326.48
2018-06-30T20:23:29.999Z,101324.92
2018-06-30T20:25:58.131Z,101325.42
2018-06-30T20:28:26.755Z,101328.66
2018-06-30T20:30:55.459Z,101335.18
2018-06-30T20:33:24.128Z,101339.66
2018-06-30T20:35:52.767Z,101337.97
2018-06-30T20:38:21.039Z,101339.84
2018-06-30T20:40:49.296Z,101331.63
2018-06-30T20:43:17.416Z,101338.66
2018-06-30T20:45:46.403Z,101338.36
2018-06-30T20:48:16.055Z,101333.38
2018-06-30T20:50:45.412Z,101338.02
2018-06-30T20:53:14.264Z,101334.95
2018-06-30T20:55:42.607Z,101335.47
2018-06-30T20:58:11.375Z,101334.95
2018-06-30T21:00:39.493Z,101339.56
2018-06-30T21:03:08.123Z,101339.56
2018-06-30T21:05:36.465Z,101346.27
2018-06-30T21:08:04.860Z,101348.60
2018-06-30T21:10:33.493Z,101353.73
2018-06-30T21:13:02.198Z,101351.34
2018-06-30T21:15:31.180Z,101356.84
2018-06-30T21:17:59.372Z,101359.20
2018-06-30T21:20:27.710Z,101359.39
2018-06-30T21:22:56.525Z,101361.77
2018-06-30T21:25:24.967Z,101359.90
2018-06-30T21:27:53.607Z,101363.80
2018-06-30T21:30:22.070Z,101369.47
2018-06-30T21:32:50.300Z,101369.09
2018-06-30T21:35:23.518Z,101373.38
2018-06-30T21:37:51.943Z,101373.73
2018-06-30T21:40:20.404Z,101375.07
2018-06-30T21:42:48.783Z,101375.40
2018-06-30T21:45:17.876Z,101374.50
2018-06-30T21:47:46.593Z,101380.99
2018-06-30T21:50:15.346Z,101385.45
2018-06-30T21:52:43.835Z,101383.20
2018-06-30T21:55:12.155Z,101389.34
2018-06-30T21:57:40.841Z,101389.84
2018-06-30T22:00:12.012Z,101387.35
2018-06-30T22:02:40.248Z,101395.52
2018-06-30T22:05:08.813Z,101389.20
2018-06-30T22:07:37.272Z,101388.85
2018-06-30T22:10:06.876Z,101388.67
2018-06-30T22:12:35.679Z,101395.16
2018-06-30T22:15:04.196Z,101394.67
2018-06-30T22:17:32.295Z,101394.63
2018-06-30T22:20:00.703Z,101397.54
2018-06-30T22:22:29.441Z,101392.55
2018-06-30T22:24:58.176Z,101393.22
2018-06-30T22:27:26.617Z,101396.25
2018-06-30T22:29:55.078Z,101385.82
2018-06-30T22:32:23.652Z,101387.81
2018-06-30T22:34:52.323Z,101387.78
2018-06-30T22:37:20.440Z,101394.56
2018-06-30T22:40:00.020Z,101399.66
2018-06-30T22:42:28.657Z,101393.80
2018-06-30T22:44:57.000Z,101389.06
2018-06-30T22:47:25.688Z,101391.46
2018-06-30T22:49:53.805Z,101394.80
2018-06-30T22:52:22.656Z,101396.22
2018-06-30T22:54:50.766Z,101397.84
2018-06-30T22:57:19.146Z,101393.64
2018-06-30T22:59:47.892Z,101394.45
2018-06-30T23:02:16.250Z,101399.31
2018-06-30T23:04:45.917Z,101396.34
2018-06-30T23:07:14.260Z,101404.60
2018-06-30T23:09:42.573Z,101404.52
2018-06-30T23:12:11.155Z,101408.05
2018-06-30T23:14:39.981Z,101407.49
2018-06-30T23:17:08.997Z,101410.14
2018-06-30T23:19:37.760Z,101412.09
2018-06-30T23:22:06.085Z,101419.34
2018-06-30T23:24:34.717Z,101409.73
2018-06-30T23:27:03.348Z,101414.61
2018-06-30T23:29:31.655Z,101409.59
2018-06-30T23:31:59.756Z,101415.12
2018-06-30T23:34:28.245Z,101411.11
2018-06-30T23:36:56.637Z,101430.48
2018-06-30T23:39:24.769Z,101430.19
2018-06-30T23:41:52.870Z,101429.62
2018-06-30T23:44:21.591Z,101436.13
2018-06-30T23:46:50.012Z,101434.14
2018-06-30T23:49:18.709Z,101437.77
2018-06-30T23:51:47.686Z,101432.63
2018-06-30T23:54:16.107Z,101442.64
2018-06-30T23:56:45.849Z,101445.15
2018-06-30T23:59:14.753Z,101445.94
